Time;durP1;ratioP1;P1;durP2;ratioP2;P2;SDS_P1;SDS_P2;PMS_P1;PMS_P2;Temp;Humidity;BMP_temperature;BMP_pressure;BME280_temperature;BME280_humidity;BME280_pressure;Samples;Min_cycle;Max_cycle;Signal;HPM_P1;HPM_P2
2024/01/06 00:00:13;;;;;;;78.80;37.17;;;;;;;-146.82;100.00;71671.09;5037173;28;20039;-74
2024/01/06 00:02:38;;;;;;;65.18;32.97;;;;;;;-146.82;100.00;71671.09;5037448;28;20614;-75
2024/01/06 00:05:05;;;;;;;78.07;34.85;;;;;;;-146.82;100.00;71671.09;5043264;28;20037;-74
2024/01/06 00:07:30;;;;;;;68.22;34.72;;;;;;;-146.82;100.00;71671.09;5043205;28;20521;-74
2024/01/06 00:09:56;;;;;;;74.22;34.95;;;;;;;-146.82;100.00;71671.09;5045050;28;20037;-77
2024/01/06 00:12:21;;;;;;;70.68;35.33;;;;;;;-146.82;100.00;71671.09;5044531;28;20024;-75
2024/01/06 00:14:47;;;;;;;72.40;34.80;;;;;;;-146.82;100.00;71671.09;5044836;28;20082;-73
2024/01/06 00:17:12;;;;;;;67.78;32.30;;;;;;;-146.82;100.00;71671.09;5044084;28;20041;-75
2024/01/06 00:19:38;;;;;;;69.97;33.97;;;;;;;-146.82;100.00;71671.09;5044434;28;20032;-77
2024/01/06 00:22:03;;;;;;;67.10;34.17;;;;;;;-146.82;100.00;71671.09;5044379;28;20481;-75
2024/01/06 00:24:29;;;;;;;63.70;31.25;;;;;;;-146.82;100.00;71671.09;5044481;28;20116;-75
2024/01/06 00:26:54;;;;;;;68.45;33.28;;;;;;;-146.82;100.00;71671.09;5044567;28;20060;-75
2024/01/06 00:29:19;;;;;;;68.57;33.30;;;;;;;-146.82;100.00;71671.09;5042776;28;20017;-76
2024/01/06 00:31:45;;;;;;;72.85;35.33;;;;;;;-146.82;100.00;71671.09;5044100;28;20082;-77
2024/01/06 00:34:10;;;;;;;67.95;34.53;;;;;;;-146.82;100.00;71671.09;5044230;28;20025;-75
2024/01/06 00:36:35;;;;;;;70.82;34.13;;;;;;;-146.82;100.00;71671.09;5044459;28;20562;-74
2024/01/06 00:39:01;;;;;;;79.28;36.28;;;;;;;-146.82;100.00;71671.09;5041918;28;20040;-74
2024/01/06 00:41:26;;;;;;;75.88;35.42;;;;;;;-146.82;100.00;71671.09;5043267;28;20029;-76
2024/01/06 00:43:52;;;;;;;71.72;34.65;;;;;;;-146.82;100.00;71671.09;5042963;28;20029;-76
2024/01/06 00:46:17;;;;;;;68.85;35.08;;;;;;;-146.82;100.00;71671.09;5043802;28;20103;-76
2024/01/06 00:48:43;;;;;;;75.80;36.05;;;;;;;-146.82;100.00;71671.09;5043580;28;20432;-74
2024/01/06 00:51:08;;;;;;;68.00;34.70;;;;;;;-146.82;100.00;71671.09;5044411;28;20449;-74
2024/01/06 00:53:34;;;;;;;76.55;35.95;;;;;;;-146.82;100.00;71671.09;5042506;28;20045;-73
2024/01/06 00:55:59;;;;;;;65.88;34.38;;;;;;;-146.82;100.00;71671.09;5042644;28;20120;-74
2024/01/06 00:58:25;;;;;;;77.53;38.47;;;;;;;-146.82;100.00;71671.09;5043730;28;20552;-76
2024/01/06 01:00:50;;;;;;;77.15;37.92;;;;;;;-146.82;100.00;71671.09;5036927;28;20025;-77
2024/01/06 01:03:16;;;;;;;77.97;35.80;;;;;;;-146.82;100.00;71671.09;5039115;28;20033;-76
2024/01/06 01:05:41;;;;;;;76.97;37.72;;;;;;;-146.82;100.00;71671.09;5041020;28;20029;-75
2024/01/06 01:08:07;;;;;;;67.50;34.38;;;;;;;-146.82;100.00;71671.09;5039124;28;20025;-75
2024/01/06 01:10:32;;;;;;;72.57;33.00;;;;;;;-146.82;100.00;71671.09;5040442;28;20100;-74
2024/01/06 01:12:57;;;;;;;72.40;34.95;;;;;;;-146.82;100.00;71671.09;5040491;28;20104;-75
2024/01/06 01:15:23;;;;;;;75.18;33.85;;;;;;;-146.82;100.00;71671.09;5039062;28;20026;-75
2024/01/06 01:17:48;;;;;;;73.45;36.60;;;;;;;-146.82;100.00;71671.09;5040066;28;20394;-75
2024/01/06 01:20:13;;;;;;;68.63;33.20;;;;;;;-146.82;100.00;71671.09;5039026;28;20021;-75
2024/01/06 01:22:39;;;;;;;69.80;33.00;;;;;;;-146.82;100.00;71671.09;5041004;28;20033;-74
2024/01/06 01:25:07;;;;;;;70.00;34.42;;;;;;;-146.82;100.00;71671.09;5041026;28;20061;-74
2024/01/06 01:27:36;;;;;;;66.97;34.72;;;;;;;-146.82;100.00;71671.09;5040444;28;20025;-76
2024/01/06 01:30:01;;;;;;;65.22;32.08;;;;;;;-146.82;100.00;71671.09;5045394;28;21015;-77
2024/01/06 01:32:26;;;;;;;71.60;33.05;;;;;;;-146.82;100.00;71671.09;5039222;28;20033;-74
2024/01/06 01:34:52;;;;;;;69.85;32.15;;;;;;;-146.82;100.00;71671.09;5039825;28;20028;-74
2024/01/06 01:37:17;;;;;;;67.03;33.05;;;;;;;-146.82;100.00;71671.09;5039790;28;20029;-74
2024/01/06 01:39:43;;;;;;;65.43;32.65;;;;;;;-146.82;100.00;71671.09;5039747;28;20076;-74
2024/01/06 01:42:09;;;;;;;65.45;30.98;;;;;;;-146.82;100.00;71671.09;5021652;28;20485;-75
2024/01/06 01:44:34;;;;;;;68.78;33.92;;;;;;;-146.82;100.00;71671.09;5044643;28;20108;-76
2024/01/06 01:47:00;;;;;;;60.25;31.95;;;;;;;-146.82;100.00;71671.09;5046383;28;20134;-75
2024/01/06 01:49:25;;;;;;;64.82;33.00;;;;;;;-146.82;100.00;71671.09;5046653;28;20035;-75
2024/01/06 01:51:51;;;;;;;60.85;29.83;;;;;;;-146.82;100.00;71671.09;5046719;28;20083;-74
2024/01/06 01:54:16;;;;;;;64.65;33.60;;;;;;;-146.82;100.00;71671.09;5029385;28;20049;-75
2024/01/06 01:56:42;;;;;;;64.78;31.52;;;;;;;-146.82;100.00;71671.09;5045454;28;20063;-73
2024/01/06 01:59:12;;;;;;;65.55;31.05;;;;;;;-146.82;100.00;71671.09;5047084;28;20033;-73
2024/01/06 02:01:39;;;;;;;59.67;29.85;;;;;;;-146.82;100.00;71671.09;5046839;28;20037;-75
2024/01/06 02:04:05;;;;;;;57.72;29.08;;;;;;;-146.82;100.00;71671.09;5046953;28;20031;-74
2024/01/06 02:06:30;;;;;;;61.35;30.42;;;;;;;-146.82;100.00;71671.09;5047065;28;20108;-75
2024/01/06 02:08:55;;;;;;;69.15;33.28;;;;;;;-146.82;100.00;71671.09;5046285;28;20761;-75
2024/01/06 02:11:21;;;;;;;57.65;29.65;;;;;;;-146.82;100.00;71671.09;5046166;28;20477;-75
2024/01/06 02:13:46;;;;;;;59.05;31.73;;;;;;;-146.82;100.00;71671.09;5045552;28;20024;-75
2024/01/06 02:16:11;;;;;;;66.45;32.05;;;;;;;-146.82;100.00;71671.09;5046443;28;20506;-74
2024/01/06 02:18:37;;;;;;;66.95;33.50;;;;;;;-146.82;100.00;71671.09;5046559;28;20042;-75
2024/01/06 02:21:03;;;;;;;82.45;33.90;;;;;;;-146.82;100.00;71671.09;5044709;28;20039;-74
2024/01/06 02:23:29;;;;;;;64.75;31.30;;;;;;;-146.82;100.00;71671.09;5046672;28;20481;-75
2024/01/06 02:25:55;;;;;;;70.75;34.03;;;;;;;-146.82;100.00;71671.09;5046382;28;20092;-75
2024/01/06 02:28:20;;;;;;;68.25;32.13;;;;;;;-146.82;100.00;71671.09;5045872;28;20029;-74
2024/01/06 02:30:46;;;;;;;76.60;34.85;;;;;;;-146.82;100.00;71671.09;5044874;28;20021;-75
2024/01/06 02:33:11;;;;;;;71.63;33.70;;;;;;;-146.82;100.00;71671.09;5046167;28;20538;-72
2024/01/06 02:35:37;;;;;;;65.82;34.53;;;;;;;-146.82;100.00;71671.09;5046478;28;20031;-74
2024/01/06 02:38:02;;;;;;;71.88;32.67;;;;;;;-146.82;100.00;71671.09;5045716;28;20040;-74
2024/01/06 02:40:28;;;;;;;66.60;33.53;;;;;;;-146.82;100.00;71671.09;5046418;28;20075;-73
2024/01/06 02:42:53;;;;;;;67.47;34.50;;;;;;;-146.82;100.00;71671.09;5046440;28;20029;-77
2024/01/06 02:45:19;;;;;;;66.32;35.08;;;;;;;-146.82;100.00;71671.09;5046649;28;21069;-75
2024/01/06 02:47:44;;;;;;;67.57;33.63;;;;;;;-146.82;100.00;71671.09;5039381;28;20059;-76
2024/01/06 02:50:10;;;;;;;71.95;34.55;;;;;;;-146.82;100.00;71671.09;5038995;28;20124;-75
2024/01/06 02:52:35;;;;;;;74.20;36.22;;;;;;;-146.82;100.00;71671.09;5038898;28;20052;-74
2024/01/06 02:55:01;;;;;;;63.22;32.80;;;;;;;-146.82;100.00;71671.09;5038984;28;20035;-76
2024/01/06 02:57:30;;;;;;;76.88;37.45;;;;;;;-146.82;100.00;71671.09;5038463;28;20029;-75
2024/01/06 02:59:55;;;;;;;72.30;36.58;;;;;;;-146.82;100.00;71671.09;5037666;28;20067;-75
2024/01/06 03:02:21;;;;;;;65.57;32.88;;;;;;;-146.82;100.00;71671.09;5038620;28;20032;-76
2024/01/06 03:04:46;;;;;;;64.70;33.88;;;;;;;-146.82;100.00;71671.09;5037897;28;20478;-75
2024/01/06 03:07:11;;;;;;;65.18;32.53;;;;;;;-146.82;100.00;71671.09;5038074;28;20052;-75
2024/01/06 03:09:38;;;;;;;70.85;32.88;;;;;;;-146.82;100.00;71671.09;5038076;28;20118;-74
2024/01/06 03:12:05;;;;;;;67.05;33.72;;;;;;;-146.82;100.00;71671.09;5038061;28;20040;-74
2024/01/06 03:14:31;;;;;;;65.18;31.35;;;;;;;-146.82;100.00;71671.09;5037793;28;20076;-74
2024/01/06 03:16:58;;;;;;;63.80;31.25;;;;;;;-146.82;100.00;71671.09;5037988;28;20025;-74
2024/01/06 03:19:25;;;;;;;72.97;33.22;;;;;;;-146.82;100.00;71671.09;5037720;28;20355;-74
2024/01/06 03:21:51;;;;;;;61.50;31.67;;;;;;;-146.82;100.00;71671.09;5037724;28;20025;-75
2024/01/06 03:24:17;;;;;;;65.65;32.53;;;;;;;-146.82;100.00;71671.09;5037110;28;20039;-77
2024/01/06 03:26:42;;;;;;;64.93;31.50;;;;;;;-146.82;100.00;71671.09;5038085;28;20040;-73
2024/01/06 03:29:07;;;;;;;58.03;28.95;;;;;;;-146.82;100.00;71671.09;5037462;28;20021;-73
2024/01/06 03:31:33;;;;;;;63.00;30.20;;;;;;;-146.82;100.00;71671.09;5037567;28;20020;-74
2024/01/06 03:33:58;;;;;;;61.63;30.23;;;;;;;-146.82;100.00;71671.09;5037644;28;20045;-76
2024/01/06 03:36:24;;;;;;;60.22;31.02;;;;;;;-146.82;100.00;71671.09;5037551;28;20021;-74
2024/01/06 03:38:49;;;;;;;63.25;31.33;;;;;;;-146.82;100.00;71671.09;5037282;28;20029;-74
2024/01/06 03:41:14;;;;;;;61.72;30.10;;;;;;;-146.82;100.00;71671.09;5044986;28;20013;-73
2024/01/06 03:43:40;;;;;;;65.10;32.03;;;;;;;-146.82;100.00;71671.09;5044941;28;20024;-75
2024/01/06 03:46:05;;;;;;;63.63;30.33;;;;;;;-146.82;100.00;71671.09;5043610;28;20090;-74
2024/01/06 03:48:31;;;;;;;66.50;31.48;;;;;;;-146.82;100.00;71671.09;5037241;28;20025;-76
2024/01/06 03:50:58;;;;;;;70.82;33.65;;;;;;;-146.82;100.00;71671.09;5037523;28;20035;-76
2024/01/06 03:53:24;;;;;;;59.85;29.98;;;;;;;-146.82;100.00;71671.09;5037254;28;20099;-75
2024/01/06 03:55:49;;;;;;;60.38;29.58;;;;;;;-146.82;100.00;71671.09;5037142;28;20029;-75
2024/01/06 03:58:15;;;;;;;58.90;29.15;;;;;;;-146.82;100.00;71671.09;5037276;28;20021;-74
2024/01/06 04:00:40;;;;;;;56.35;28.45;;;;;;;-146.82;100.00;71671.09;5037665;28;20319;-74
2024/01/06 04:03:06;;;;;;;58.65;29.08;;;;;;;-146.82;100.00;71671.09;5037141;28;20030;-75
2024/01/06 04:05:32;;;;;;;58.97;29.35;;;;;;;-146.82;100.00;71671.09;5037139;28;20021;-74
2024/01/06 04:07:57;;;;;;;61.30;29.75;;;;;;;-146.82;100.00;71671.09;5037120;28;20024;-75
2024/01/06 04:10:23;;;;;;;60.70;29.02;;;;;;;-146.82;100.00;71671.09;5037153;28;20017;-74
2024/01/06 04:12:48;;;;;;;57.78;29.70;;;;;;;-146.82;100.00;71671.09;5036747;28;20025;-74
2024/01/06 04:15:13;;;;;;;56.90;28.98;;;;;;;-146.82;100.00;71671.09;5036957;28;20108;-74
2024/01/06 04:17:39;;;;;;;61.83;29.88;;;;;;;-146.82;100.00;71671.09;5037231;28;20056;-76
2024/01/06 04:20:05;;;;;;;55.47;30.70;;;;;;;-146.82;100.00;71671.09;5036967;28;20017;-76
2024/01/06 04:22:30;;;;;;;55.78;29.15;;;;;;;-146.82;100.00;71671.09;5037137;28;20051;-76
2024/01/06 04:24:56;;;;;;;58.75;29.00;;;;;;;-146.82;100.00;71671.09;5036236;28;21032;-75
2024/01/06 04:27:21;;;;;;;60.97;27.55;;;;;;;-146.82;100.00;71671.09;5036971;28;20029;-75
2024/01/06 04:29:47;;;;;;;58.55;29.05;;;;;;;-146.82;100.00;71671.09;5036593;28;20437;-76
2024/01/06 04:32:12;;;;;;;63.83;30.95;;;;;;;-146.82;100.00;71671.09;5036625;28;20017;-75
2024/01/06 04:34:37;;;;;;;58.55;31.02;;;;;;;-146.82;100.00;71671.09;5036457;28;20032;-74
2024/01/06 04:37:03;;;;;;;56.28;27.60;;;;;;;-146.82;100.00;71671.09;5036203;28;20100;-74
2024/01/06 04:39:28;;;;;;;61.35;30.35;;;;;;;-146.82;100.00;71671.09;5036327;28;20079;-73
2024/01/06 04:41:54;;;;;;;62.65;29.98;;;;;;;-146.82;100.00;71671.09;5036075;28;20025;-74
2024/01/06 04:44:21;;;;;;;54.42;29.42;;;;;;;-146.82;100.00;71671.09;5035320;28;20029;-76
2024/01/06 04:46:46;;;;;;;59.30;29.92;;;;;;;-146.82;100.00;71671.09;5042874;28;20028;-74
2024/01/06 04:49:12;;;;;;;55.15;28.70;;;;;;;-146.82;100.00;71671.09;5044126;28;20075;-73
2024/01/06 04:51:37;;;;;;;60.15;28.88;;;;;;;-146.82;100.00;71671.09;5043853;28;20080;-74
2024/01/06 04:54:03;;;;;;;59.80;30.73;;;;;;;-146.82;100.00;71671.09;5043798;28;20049;-74
2024/01/06 04:56:28;;;;;;;64.63;30.70;;;;;;;-146.82;100.00;71671.09;5044261;28;20024;-75
2024/01/06 04:58:54;;;;;;;55.88;28.60;;;;;;;-146.82;100.00;71671.09;5044115;28;20062;-75
2024/01/06 05:01:20;;;;;;;61.10;29.90;;;;;;;-146.82;100.00;71671.09;5043951;28;20112;-76
2024/01/06 05:03:45;;;;;;;55.20;27.95;;;;;;;-146.82;100.00;71671.09;5042838;28;20447;-73
2024/01/06 05:06:10;;;;;;;64.78;29.67;;;;;;;-146.82;100.00;71671.09;5043008;28;20032;-74
2024/01/06 05:08:41;;;;;;;65.15;29.30;;;;;;;-146.82;100.00;71671.09;5035274;28;20431;-75
2024/01/06 05:11:06;;;;;;;65.70;29.95;;;;;;;-146.82;100.00;71671.09;5043524;28;20040;-75
2024/01/06 05:13:32;;;;;;;66.22;30.83;;;;;;;-146.82;100.00;71671.09;5043087;28;20021;-76
2024/01/06 05:15:57;;;;;;;63.33;28.02;;;;;;;-146.82;100.00;71671.09;5044262;28;20436;-77
2024/01/06 05:18:23;;;;;;;69.28;30.50;;;;;;;-146.82;100.00;71671.09;5043623;28;20100;-78
2024/01/06 05:20:48;;;;;;;65.65;31.38;;;;;;;-146.82;100.00;71671.09;5044101;28;20355;-76
2024/01/06 05:23:14;;;;;;;67.28;32.38;;;;;;;-146.82;100.00;71671.09;5043938;28;20071;-77
2024/01/06 05:25:39;;;;;;;61.63;30.60;;;;;;;-146.82;100.00;71671.09;5043889;28;20393;-76
2024/01/06 05:28:05;;;;;;;70.05;30.75;;;;;;;-146.82;100.00;71671.09;5036329;28;20025;-78
2024/01/06 05:30:30;;;;;;;65.28;30.67;;;;;;;-146.82;100.00;71671.09;5036151;28;20041;-77
2024/01/06 05:32:56;;;;;;;62.72;29.73;;;;;;;-146.82;100.00;71671.09;5035144;28;20026;-78
2024/01/06 05:35:21;;;;;;;64.25;29.63;;;;;;;-146.82;100.00;71671.09;5036587;28;20108;-76
2024/01/06 05:37:47;;;;;;;64.30;29.13;;;;;;;-146.82;100.00;71671.09;5036096;28;20025;-79
2024/01/06 05:40:15;;;;;;;64.55;30.38;;;;;;;-146.82;100.00;71671.09;5044274;28;20055;-77
2024/01/06 05:42:40;;;;;;;63.28;30.27;;;;;;;-146.82;100.00;71671.09;5042452;28;20021;-75
2024/01/06 05:45:06;;;;;;;65.78;30.08;;;;;;;-146.82;100.00;71671.09;5044036;28;20462;-76
2024/01/06 05:47:32;;;;;;;64.85;29.30;;;;;;;-146.82;100.00;71671.09;5046058;28;20116;-78
2024/01/06 05:49:57;;;;;;;60.92;27.00;;;;;;;-146.82;100.00;71671.09;5048564;28;20378;-77
2024/01/06 05:52:24;;;;;;;56.00;27.15;;;;;;;-146.82;100.00;71671.09;5046968;28;20397;-78
2024/01/06 05:54:50;;;;;;;50.88;26.05;;;;;;;-146.82;100.00;71671.09;5047805;28;20048;-77
2024/01/06 05:57:16;;;;;;;61.72;25.95;;;;;;;-146.82;100.00;71671.09;5048209;28;20041;-77
2024/01/06 05:59:41;;;;;;;60.83;26.13;;;;;;;-146.82;100.00;71671.09;5047142;28;20026;-77
2024/01/06 06:02:06;;;;;;;50.70;25.38;;;;;;;-146.82;100.00;71671.09;5048445;28;20024;-77
2024/01/06 06:04:32;;;;;;;53.78;23.55;;;;;;;-146.82;100.00;71671.09;5047895;28;20523;-75
2024/01/06 06:06:57;;;;;;;52.67;24.25;;;;;;;-146.82;100.00;71671.09;5047647;28;20074;-77
2024/01/06 06:09:23;;;;;;;53.20;24.75;;;;;;;-146.82;100.00;71671.09;5046881;28;20462;-77
2024/01/06 06:11:48;;;;;;;54.17;25.33;;;;;;;-146.82;100.00;71671.09;5041853;28;20080;-77
2024/01/06 06:14:14;;;;;;;45.40;23.95;;;;;;;-146.82;100.00;71671.09;5039655;28;20025;-78
2024/01/06 06:16:39;;;;;;;51.88;25.15;;;;;;;-146.82;100.00;71671.09;5039737;28;20445;-77
2024/01/06 06:19:04;;;;;;;48.75;23.85;;;;;;;-146.82;100.00;71671.09;5040342;28;20025;-77
2024/01/06 06:21:30;;;;;;;48.10;25.08;;;;;;;-146.82;100.00;71671.09;5040246;28;20043;-77
2024/01/06 06:23:55;;;;;;;48.55;23.95;;;;;;;-146.82;100.00;71671.09;5020840;28;20022;-78
2024/01/06 06:26:22;;;;;;;52.35;25.55;;;;;;;-146.82;100.00;71671.09;5039977;28;20036;-80
2024/01/06 06:28:47;;;;;;;44.97;25.02;;;;;;;-146.82;100.00;71671.09;5040485;28;20032;-78
2024/01/06 06:31:13;;;;;;;45.75;23.88;;;;;;;-146.82;100.00;71671.09;5040394;28;20038;-76
2024/01/06 06:33:39;;;;;;;46.33;23.35;;;;;;;-146.82;100.00;71671.09;5038901;28;20025;-75
2024/01/06 06:36:05;;;;;;;45.42;23.50;;;;;;;-146.82;100.00;71671.09;5039645;28;20359;-78
2024/01/06 06:38:30;;;;;;;44.28;23.42;;;;;;;-146.82;100.00;71671.09;5039892;28;20082;-76
2024/01/06 06:40:56;;;;;;;48.03;24.08;;;;;;;-146.82;100.00;71671.09;5039123;28;20435;-78
2024/01/06 06:43:21;;;;;;;46.78;24.73;;;;;;;-146.82;100.00;71671.09;5040784;28;20037;-78
2024/01/06 06:45:47;;;;;;;53.30;24.40;;;;;;;-146.82;100.00;71671.09;5039698;28;20025;-77
2024/01/06 06:48:12;;;;;;;46.25;23.63;;;;;;;-146.82;100.00;71671.09;5038971;28;20455;-77
2024/01/06 06:50:38;;;;;;;42.00;21.30;;;;;;;-146.82;100.00;71671.09;5042048;28;20037;-77
2024/01/06 06:53:03;;;;;;;45.45;22.80;;;;;;;-146.82;100.00;71671.09;5043253;28;20061;-76
2024/01/06 06:55:29;;;;;;;42.38;21.15;;;;;;;-146.82;100.00;71671.09;5039025;28;20034;-76
2024/01/06 06:57:54;;;;;;;47.30;23.15;;;;;;;-146.82;100.00;71671.09;5038499;28;20536;-75
2024/01/06 07:00:20;;;;;;;50.55;26.20;;;;;;;-146.82;100.00;71671.09;5038676;28;20482;-77
2024/01/06 07:02:45;;;;;;;48.28;26.02;;;;;;;-146.82;100.00;71671.09;5046905;28;20017;-76
2024/01/06 07:05:11;;;;;;;47.72;24.90;;;;;;;-146.82;100.00;71671.09;5046819;28;20029;-77
2024/01/06 07:07:37;;;;;;;48.28;22.00;;;;;;;-146.82;100.00;71671.09;5037687;28;20022;-76
2024/01/06 07:10:06;;;;;;;45.22;24.98;;;;;;;-146.82;100.00;71671.09;5046033;28;20025;-75
2024/01/06 07:12:32;;;;;;;53.28;25.15;;;;;;;-146.82;100.00;71671.09;5047837;28;20043;-77
2024/01/06 07:15:00;;;;;;;49.72;25.23;;;;;;;-146.82;100.00;71671.09;5048173;28;20537;-76
2024/01/06 07:17:25;;;;;;;44.90;23.73;;;;;;;-146.82;100.00;71671.09;5048073;28;20051;-78
2024/01/06 07:19:51;;;;;;;45.25;22.38;;;;;;;-146.82;100.00;71671.09;5053026;28;20548;-78
2024/01/06 07:22:18;;;;;;;47.92;24.08;;;;;;;-146.82;100.00;71671.09;5042019;28;20048;-78
2024/01/06 07:24:43;;;;;;;44.30;22.92;;;;;;;-146.82;100.00;71671.09;5050105;28;20108;-77
2024/01/06 07:27:09;;;;;;;41.00;21.75;;;;;;;-146.82;100.00;71671.09;5044971;28;20060;-78
2024/01/06 07:29:34;;;;;;;42.60;21.88;;;;;;;-146.82;100.00;71671.09;5043606;28;20048;-76
2024/01/06 07:32:00;;;;;;;41.88;21.92;;;;;;;-146.82;100.00;71671.09;5042684;28;20025;-81
2024/01/06 07:34:25;;;;;;;41.17;21.90;;;;;;;-146.82;100.00;71671.09;5056258;28;20037;-86
2024/01/06 07:36:51;;;;;;;44.90;23.60;;;;;;;-146.82;100.00;71671.09;5054631;28;20045;-86
2024/01/06 07:39:16;;;;;;;38.85;22.48;;;;;;;-146.82;100.00;71671.09;5053655;28;20455;-82
2024/01/06 07:41:42;;;;;;;49.45;25.70;;;;;;;-146.82;100.00;71671.09;5046080;28;20125;-85
2024/01/06 07:44:07;;;;;;;46.90;23.05;;;;;;;-146.82;100.00;71671.09;5046510;28;20047;-81
2024/01/06 07:46:33;;;;;;;40.03;21.55;;;;;;;-146.82;100.00;71671.09;5041987;28;20485;-85
2024/01/06 07:48:58;;;;;;;46.90;22.67;;;;;;;-146.82;100.00;71671.09;5040643;28;20343;-84
2024/01/06 07:51:25;;;;;;;43.78;21.92;;;;;;;-146.82;100.00;71671.09;5040680;28;20104;-87
2024/01/06 07:53:50;;;;;;;42.38;21.70;;;;;;;-146.82;100.00;71671.09;5039557;28;20025;-82
2024/01/06 07:56:16;;;;;;;40.13;21.08;;;;;;;-146.82;100.00;71671.09;5045494;28;20043;-80
2024/01/06 07:58:42;;;;;;;42.47;21.58;;;;;;;-146.82;100.00;71671.09;5045272;28;20061;-81
2024/01/06 08:01:07;;;;;;;40.33;21.73;;;;;;;-146.82;100.00;71671.09;5047277;28;20124;-80
2024/01/06 08:03:33;;;;;;;39.65;20.60;;;;;;;-146.82;100.00;71671.09;5046748;28;20032;-80
2024/01/06 08:05:58;;;;;;;43.40;20.27;;;;;;;-146.82;100.00;71671.09;5046499;28;20064;-79
2024/01/06 08:08:24;;;;;;;38.50;20.33;;;;;;;-146.82;100.00;71671.09;5044097;28;20162;-82
2024/01/06 08:10:49;;;;;;;38.92;19.35;;;;;;;-146.82;100.00;71671.09;5046415;28;20484;-82
2024/01/06 08:13:15;;;;;;;36.35;20.67;;;;;;;-146.82;100.00;71671.09;5046090;28;20502;-82
2024/01/06 08:15:40;;;;;;;42.22;21.70;;;;;;;-146.82;100.00;71671.09;5045694;28;20029;-79
2024/01/06 08:18:06;;;;;;;37.05;20.40;;;;;;;-146.82;100.00;71671.09;5045526;28;20057;-81
2024/01/06 08:20:31;;;;;;;36.67;20.27;;;;;;;-146.82;100.00;71671.09;5048736;28;20421;-81
2024/01/06 08:22:57;;;;;;;43.55;20.98;;;;;;;-146.82;100.00;71671.09;5050986;28;20068;-81
2024/01/06 08:25:22;;;;;;;37.20;20.83;;;;;;;-146.82;100.00;71671.09;5055142;28;20026;-82
2024/01/06 08:27:47;;;;;;;40.13;23.05;;;;;;;-146.82;100.00;71671.09;5049342;28;20030;-81
2024/01/06 08:30:13;;;;;;;41.15;21.13;;;;;;;-146.82;100.00;71671.09;5046289;28;20347;-80
2024/01/06 08:32:38;;;;;;;46.65;24.10;;;;;;;-146.82;100.00;71671.09;5040534;28;20493;-81
2024/01/06 08:35:04;;;;;;;43.58;21.65;;;;;;;-146.82;100.00;71671.09;5047438;28;20029;-84
2024/01/06 08:37:30;;;;;;;41.17;22.33;;;;;;;-146.82;100.00;71671.09;5050911;28;20087;-84
2024/01/06 08:39:55;;;;;;;41.38;21.58;;;;;;;-146.82;100.00;71671.09;5047246;28;20496;-86
2024/01/06 08:42:21;;;;;;;44.67;23.02;;;;;;;-146.82;100.00;71671.09;5051613;28;20022;-82
2024/01/06 08:44:47;;;;;;;44.58;23.33;;;;;;;-146.82;100.00;71671.09;5051128;28;20025;-79
2024/01/06 08:47:12;;;;;;;46.08;23.25;;;;;;;-146.82;100.00;71671.09;5048420;28;20454;-82
2024/01/06 08:49:38;;;;;;;40.40;22.02;;;;;;;-146.82;100.00;71671.09;5052136;28;20025;-85
2024/01/06 08:52:04;;;;;;;43.35;22.63;;;;;;;-146.82;100.00;71671.09;5045295;28;20497;-82
2024/01/06 08:54:31;;;;;;;41.65;21.75;;;;;;;-146.82;100.00;71671.09;5032733;28;20025;-83
2024/01/06 08:56:57;;;;;;;41.85;21.13;;;;;;;-146.82;100.00;71671.09;5039610;28;20373;-88
2024/01/06 08:59:22;;;;;;;37.97;22.63;;;;;;;-146.82;100.00;71671.09;5035776;28;20186;-84
2024/01/06 09:01:48;;;;;;;38.60;20.40;;;;;;;-146.82;100.00;71671.09;5036917;28;20028;-86
2024/01/06 09:04:14;;;;;;;39.55;22.17;;;;;;;-146.82;100.00;71671.09;5040298;28;20066;-85
2024/01/06 09:06:41;;;;;;;37.97;21.00;;;;;;;-146.82;100.00;71671.09;5041964;28;20492;-88
2024/01/06 09:09:08;;;;;;;34.13;20.00;;;;;;;-146.82;100.00;71671.09;5045048;28;20035;-83
2024/01/06 09:11:33;;;;;;;39.00;22.00;;;;;;;-146.82;100.00;71671.09;5037277;28;20029;-85
2024/01/06 09:13:59;;;;;;;44.50;22.50;;;;;;;-146.82;100.00;71671.09;5043095;28;20460;-89
2024/01/06 09:16:24;;;;;;;46.58;24.10;;;;;;;-146.82;100.00;71671.09;5036343;28;20025;-84
2024/01/06 09:18:50;;;;;;;47.22;24.70;;;;;;;-146.82;100.00;71671.09;5036357;28;20128;-86
2024/01/06 09:21:17;;;;;;;41.90;23.02;;;;;;;-146.82;100.00;71671.09;5040724;28;20032;-84
2024/01/06 09:23:42;;;;;;;41.00;22.15;;;;;;;-146.82;100.00;71671.09;5043337;28;20021;-83
2024/01/06 09:26:08;;;;;;;45.42;23.13;;;;;;;-146.82;100.00;71671.09;5043070;28;20021;-85
2024/01/06 09:28:33;;;;;;;45.33;24.08;;;;;;;-146.82;100.00;71671.09;5044495;28;20049;-78
2024/01/06 09:30:59;;;;;;;41.30;22.50;;;;;;;-146.82;100.00;71671.09;5025570;28;20488;-77
2024/01/06 09:33:24;;;;;;;41.20;23.02;;;;;;;-146.82;100.00;71671.09;5043111;28;20025;-78
2024/01/06 09:35:50;;;;;;;46.65;23.70;;;;;;;-146.82;100.00;71671.09;5044567;28;20025;-81
2024/01/06 09:38:17;;;;;;;44.53;22.90;;;;;;;-146.82;100.00;71671.09;5024982;28;20030;-83
2024/01/06 09:40:44;;;;;;;38.28;20.73;;;;;;;-146.82;100.00;71671.09;5040308;28;20033;-77
2024/01/06 09:43:10;;;;;;;43.72;21.30;;;;;;;-146.82;100.00;71671.09;5046147;28;20044;-79
2024/01/06 09:45:35;;;;;;;43.85;22.35;;;;;;;-146.82;100.00;71671.09;5036637;28;20021;-78
2024/01/06 09:48:11;;;;;;;40.70;21.73;;;;;;;-146.82;100.00;71671.09;5041654;28;20017;-77
2024/01/06 09:50:38;;;;;;;39.13;21.83;;;;;;;-146.82;100.00;71671.09;5041776;28;20021;-78
2024/01/06 09:53:05;;;;;;;40.88;22.20;;;;;;;-146.82;100.00;71671.09;5018747;28;20057;-77
2024/01/06 09:55:31;;;;;;;39.47;22.80;;;;;;;-146.82;100.00;71671.09;5043774;28;20040;-76
2024/01/06 09:57:56;;;;;;;45.35;23.05;;;;;;;-146.82;100.00;71671.09;5024666;28;20025;-77
2024/01/06 10:00:22;;;;;;;40.95;21.75;;;;;;;-146.82;100.00;71671.09;5041340;28;20044;-77
2024/01/06 10:02:51;;;;;;;42.42;23.05;;;;;;;-146.82;100.00;71671.09;5044125;28;20017;-77
2024/01/06 10:05:17;;;;;;;38.97;21.33;;;;;;;-146.82;100.00;71671.09;5044400;28;20044;-76
2024/01/06 10:07:43;;;;;;;39.75;22.73;;;;;;;-146.82;100.00;71671.09;5044297;28;20111;-77
2024/01/06 10:10:10;;;;;;;43.90;23.08;;;;;;;-146.82;100.00;71671.09;5045115;28;20066;-75
2024/01/06 10:12:40;;;;;;;46.03;22.77;;;;;;;-146.82;100.00;71671.09;5044270;28;20017;-75
2024/01/06 10:15:07;;;;;;;42.67;22.27;;;;;;;-146.82;100.00;71671.09;5027012;28;20018;-76
2024/01/06 10:17:36;;;;;;;40.08;21.65;;;;;;;-146.82;100.00;71671.09;5039861;28;20107;-76
2024/01/06 10:20:02;;;;;;;37.08;21.33;;;;;;;-146.82;100.00;71671.09;5040364;28;20113;-77
2024/01/06 10:22:28;;;;;;;38.55;21.42;;;;;;;-146.82;100.00;71671.09;5044794;28;20029;-78
2024/01/06 10:24:54;;;;;;;38.33;23.48;;;;;;;-146.82;100.00;71671.09;5045318;28;20082;-79
2024/01/06 10:27:21;;;;;;;40.70;22.95;;;;;;;-146.82;100.00;71671.09;5045465;28;20052;-76
2024/01/06 10:29:47;;;;;;;41.50;22.55;;;;;;;-146.82;100.00;71671.09;5042647;28;20076;-80
2024/01/06 10:32:12;;;;;;;39.58;22.20;;;;;;;-146.82;100.00;71671.09;5042661;28;20025;-85
2024/01/06 10:34:38;;;;;;;39.58;22.58;;;;;;;-146.82;100.00;71671.09;5040893;28;20025;-82
2024/01/06 10:37:03;;;;;;;43.30;22.77;;;;;;;-146.82;100.00;71671.09;5024633;28;20029;-82
2024/01/06 10:39:29;;;;;;;41.85;23.17;;;;;;;-146.82;100.00;71671.09;5040628;28;20490;-82
2024/01/06 10:41:55;;;;;;;47.85;22.88;;;;;;;-146.82;100.00;71671.09;5036160;28;20045;-80
2024/01/06 10:44:22;;;;;;;44.03;23.15;;;;;;;-146.82;100.00;71671.09;5034225;28;20780;-80
2024/01/06 10:46:48;;;;;;;40.63;22.63;;;;;;;-146.82;100.00;71671.09;5041166;28;20053;-81